Flight Track Log - Related Links

Times and Time Zones

All times are in EDT time to prevent confusion due to time zone crossing. See the ASQ4086 flight status page for this flight to view local times or setup timezone preferences in your user account.

Time Position Orientation Groundspeed Altitude Reporting Facility
EDT Latitude Longitude Course Direction KTS MPH feet Rate Location/Type
Sat 10:48:45 AM 29.9772 -95.3056 North 164 189 600  Level Houston Center
Sat 10:49:28 AM 29.9797 -95.2642 86° East 186 214 1,900 1,923 Climbing Houston Center
Sat 10:50:03 AM 30.0097 -95.2453 29° Northeast 230 265 3,100 1,869 Climbing Houston Center
Sat 10:50:29 AM 30.0406 -95.2422 North 253 291 3,800 1,967 Climbing Houston Center
Sat 10:51:00 AM 30.2457 -95.4027 349° North  Level FlightAware Approximate
Sat 10:51:04 AM 30.0794 -95.2406 North 245 282 5,100  Level Houston Center
Sat 10:51:30 AM 30.1156 -95.2356 North 274 315 6,200 2,323 Climbing Houston Center
Sat 10:52:00 AM 30.3340 -95.4224 349° North  Level FlightAware Approximate
Sat 10:52:06 AM 30.1569 -95.2342 North 270 311 7,500  Level Houston Center
Sat 10:53:00 AM 30.4219 -95.4444 346° North  Level FlightAware Approximate
Sat 10:53:08 AM 30.2247 -95.2792 330° Northwest 276 318 9,900  Level Houston Center
Sat 10:54:00 AM 30.5096 -95.4667 North  Level FlightAware Approximate
Sat 10:54:09 AM 30.2961 -95.3272 330° Northwest 289 333 10,900  Level Houston Center
Sat 10:55:11 AM 30.3794 -95.3850 329° Northwest 337 388 11,700 774 Climbing Houston Center
Sat 10:56:13 AM 30.4686 -95.4442 330° Northwest 364 419 12,500 1,171 Climbing Houston Center
Sat 10:57:14 AM 30.5897 -95.4872 343° North 381 438 14,100 1,707 Climbing Houston Center
Sat 10:58:16 AM 30.6889 -95.5108 348° North 371 427 16,000 1,659 Climbing Houston Center
Sat 10:59:17 AM 30.7881 -95.5322 350° North 363 418 17,500 1,415 Climbing Houston Center
Sat 11:00:19 AM 30.8892 -95.5544 349° North 364 419 18,900 1,210 Climbing Houston Center
Sat 11:01:21 AM 30.9911 -95.5781 349° North 368 423 20,000 537 Climbing Houston Center
Sat 11:02:22 AM 31.1006 -95.6036 349° North 384 442 20,000  Level Houston Center
Sat 11:03:24 AM 31.2192 -95.6311 349° North 414 476 20,000  Level Houston Center
Sat 11:03:54 AM 31.2969 -95.6483 349° North 421 484 20,000  Level Fort Worth Center
Sat 11:04:54 AM 31.4061 -95.6950 340° North 424 488 20,000  Level Fort Worth Center
Sat 11:05:54 AM 31.5031 -95.7614 330° Northwest 408 470 20,000  Level Fort Worth Center
Sat 11:06:54 AM 31.6000 -95.8256 331° Northwest 406 467 20,000 -400 Level Fort Worth Center
Sat 11:07:54 AM 31.6969 -95.8922 330° Northwest 406 467 19,200 -1,000 Descending Fort Worth Center
Sat 11:08:54 AM 31.7894 -95.9517 331° Northwest 396 456 18,000 -1,200 Descending Fort Worth Center
Sat 11:09:54 AM 31.8861 -96.0186 330° Northwest 396 456 16,800 -1,450 Descending Fort Worth Center
Sat 11:10:54 AM 31.9639 -96.0689 331° Northwest 375 432 15,100 -1,950 Descending Fort Worth Center
Sat 11:11:54 AM 32.0522 -96.1289 330° Northwest 369 425 12,900 -2,300 Descending Fort Worth Center
Sat 11:12:54 AM 32.1364 -96.1817 332° Northwest 356 410 10,500 -1,500 Descending Fort Worth Center
Sat 11:13:54 AM 32.2142 -96.2347 330° Northwest 329 379 9,900 -496 Descending Fort Worth Center
Sat 11:14:55 AM 32.2917 -96.2828 332° Northwest 295 339 9,500 -400 Descending Fort Worth Center
Sat 11:15:54 AM 32.3483 -96.3167 333° Northwest 264 304 9,100 -202 Descending Fort Worth Center
Sat 11:16:54 AM 32.4197 -96.3625 332° Northwest 264 304 9,100 -500 Level Fort Worth Center
Sat 11:17:54 AM 32.4661 -96.4136 317° Northwest 259 298 8,100 -1,450 Descending Fort Worth Center
Sat 11:18:54 AM 32.5231 -96.4747 318° Northwest 248 285 6,200 -1,550 Descending Fort Worth Center
Sat 11:19:54 AM 32.5672 -96.5236 317° Northwest 241 277 5,000 -600 Descending Fort Worth Center
Sat 11:20:54 AM 32.6219 -96.5869 316° Northwest 246 283 5,000  Level Fort Worth Center
Sat 11:21:54 AM 32.6703 -96.6408 317° Northwest 252 290 5,000 -379 Level Fort Worth Center
Sat 11:22:29 AM 32.7000 -96.6667 324° Northwest 237 273 4,400 -1,029 Descending Dallas / Fort Worth TRACON

Login

Don't have an account? Register now (free) for customized features, flight alerts, and more!